sensor_id;sensor_type;location;lat;lon;timestamp;pressure;altitude;pressure_sealevel;temperature;humidity
61128;BME280;47013;42.664;23.242;2022-09-13T00:01:44;93904.78;;;14.44;74.84
61128;BME280;47013;42.664;23.242;2022-09-13T00:04:09;93897.72;;;14.47;75.02
61128;BME280;47013;42.664;23.242;2022-09-13T00:06:34;93896.75;;;14.54;74.80
61128;BME280;47013;42.664;23.242;2022-09-13T00:09:00;93887.06;;;14.36;75.39
61128;BME280;47013;42.664;23.242;2022-09-13T00:11:28;93890.38;;;14.44;75.11
61128;BME280;47013;42.664;23.242;2022-09-13T00:13:54;93889.53;;;14.47;74.92
61128;BME280;47013;42.664;23.242;2022-09-13T00:16:22;93885.28;;;14.46;75.19
61128;BME280;47013;42.664;23.242;2022-09-13T00:18:49;93882.34;;;14.53;74.95
61128;BME280;47013;42.664;23.242;2022-09-13T00:21:16;93880.09;;;14.64;74.88
61128;BME280;47013;42.664;23.242;2022-09-13T00:23:44;93874.00;;;14.73;74.59
61128;BME280;47013;42.664;23.242;2022-09-13T00:26:13;93874.66;;;14.77;74.07
61128;BME280;47013;42.664;23.242;2022-09-13T00:28:39;93875.97;;;14.72;73.86
61128;BME280;47013;42.664;23.242;2022-09-13T00:31:06;93867.06;;;14.56;75.06
61128;BME280;47013;42.664;23.242;2022-09-13T00:33:32;93870.13;;;14.58;74.77
61128;BME280;47013;42.664;23.242;2022-09-13T00:36:05;93865.34;;;14.62;74.71
61128;BME280;47013;42.664;23.242;2022-09-13T00:38:31;93865.09;;;14.56;74.96
61128;BME280;47013;42.664;23.242;2022-09-13T00:40:56;93869.50;;;14.66;74.71
61128;BME280;47013;42.664;23.242;2022-09-13T00:43:49;93870.41;;;14.76;74.34
61128;BME280;47013;42.664;23.242;2022-09-13T00:46:35;93854.47;;;14.74;74.32
61128;BME280;47013;42.664;23.242;2022-09-13T00:51:41;93869.34;;;14.86;73.69
61128;BME280;47013;42.664;23.242;2022-09-13T00:54:10;93857.53;;;14.77;73.80
61128;BME280;47013;42.664;23.242;2022-09-13T00:56:41;93854.25;;;14.82;73.49
61128;BME280;47013;42.664;23.242;2022-09-13T00:59:16;93848.75;;;14.69;74.13
61128;BME280;47013;42.664;23.242;2022-09-13T01:01:47;93856.94;;;14.69;74.52
61128;BME280;47013;42.664;23.242;2022-09-13T01:04:14;93858.28;;;14.77;74.08
61128;BME280;47013;42.664;23.242;2022-09-13T01:06:42;93854.22;;;14.69;74.35
61128;BME280;47013;42.664;23.242;2022-09-13T01:09:10;93855.41;;;14.68;74.32
61128;BME280;47013;42.664;23.242;2022-09-13T01:11:48;93856.50;;;14.70;74.30
61128;BME280;47013;42.664;23.242;2022-09-13T01:14:18;93851.38;;;14.60;74.75
61128;BME280;47013;42.664;23.242;2022-09-13T01:16:45;93850.50;;;14.63;75.03
61128;BME280;47013;42.664;23.242;2022-09-13T01:19:10;93851.69;;;14.62;75.00
61128;BME280;47013;42.664;23.242;2022-09-13T01:21:58;93854.97;;;14.69;74.55
61128;BME280;47013;42.664;23.242;2022-09-13T01:30:01;93843.75;;;14.80;74.22
61128;BME280;47013;42.664;23.242;2022-09-13T01:38:21;93836.56;;;14.86;74.08
61128;BME280;47013;42.664;23.242;2022-09-13T01:44:24;93833.50;;;14.84;73.95
61128;BME280;47013;42.664;23.242;2022-09-13T01:47:27;93837.78;;;14.85;73.75
61128;BME280;47013;42.664;23.242;2022-09-13T01:52:52;93827.72;;;14.82;73.61
61128;BME280;47013;42.664;23.242;2022-09-13T01:55:36;93831.31;;;14.79;73.88
61128;BME280;47013;42.664;23.242;2022-09-13T01:58:21;93824.53;;;14.84;73.90
61128;BME280;47013;42.664;23.242;2022-09-13T02:01:15;93823.00;;;14.70;74.30
61128;BME280;47013;42.664;23.242;2022-09-13T02:06:32;93831.63;;;14.68;74.79
61128;BME280;47013;42.664;23.242;2022-09-13T02:09:07;93826.09;;;14.72;74.11
61128;BME280;47013;42.664;23.242;2022-09-13T02:11:35;93822.16;;;14.73;74.34
61128;BME280;47013;42.664;23.242;2022-09-13T02:14:06;93828.16;;;14.81;73.77
61128;BME280;47013;42.664;23.242;2022-09-13T02:16:43;93821.50;;;14.82;74.29
61128;BME280;47013;42.664;23.242;2022-09-13T02:19:14;93826.50;;;14.70;74.00
61128;BME280;47013;42.664;23.242;2022-09-13T02:21:46;93824.97;;;14.69;74.34
61128;BME280;47013;42.664;23.242;2022-09-13T02:24:24;93821.13;;;14.67;74.29
61128;BME280;47013;42.664;23.242;2022-09-13T02:26:54;93820.81;;;14.65;74.26
61128;BME280;47013;42.664;23.242;2022-09-13T02:29:23;93817.22;;;14.68;74.17
61128;BME280;47013;42.664;23.242;2022-09-13T02:34:26;93829.56;;;14.72;74.60
61128;BME280;47013;42.664;23.242;2022-09-13T02:36:55;93823.75;;;14.70;74.37
61128;BME280;47013;42.664;23.242;2022-09-13T02:39:24;93831.94;;;14.70;73.64
61128;BME280;47013;42.664;23.242;2022-09-13T02:44:24;93825.63;;;14.73;73.61
61128;BME280;47013;42.664;23.242;2022-09-13T02:46:59;93828.97;;;14.52;73.96
61128;BME280;47013;42.664;23.242;2022-09-13T03:00:17;93831.91;;;14.29;74.86
61128;BME280;47013;42.664;23.242;2022-09-13T03:02:44;93829.91;;;14.16;75.71
61128;BME280;47013;42.664;23.242;2022-09-13T03:05:12;93824.28;;;14.24;75.13
61128;BME280;47013;42.664;23.242;2022-09-13T03:07:37;93837.69;;;14.31;74.74
61128;BME280;47013;42.664;23.242;2022-09-13T03:10:08;93834.91;;;14.34;74.45
61128;BME280;47013;42.664;23.242;2022-09-13T03:29:58;93821.25;;;14.34;72.98
61128;BME280;47013;42.664;23.242;2022-09-13T03:33:02;93820.50;;;14.34;73.13
61128;BME280;47013;42.664;23.242;2022-09-13T03:35:38;93825.97;;;14.34;72.25
61128;BME280;47013;42.664;23.242;2022-09-13T03:38:18;93830.66;;;14.33;71.70
61128;BME280;47013;42.664;23.242;2022-09-13T03:40:55;93834.13;;;14.34;72.52
61128;BME280;47013;42.664;23.242;2022-09-13T03:43:35;93835.53;;;14.26;72.04
61128;BME280;47013;42.664;23.242;2022-09-13T03:46:08;93835.53;;;14.26;72.36
61128;BME280;47013;42.664;23.242;2022-09-13T03:48:37;93838.03;;;14.20;72.13
61128;BME280;47013;42.664;23.242;2022-09-13T03:51:04;93831.22;;;14.12;72.63
61128;BME280;47013;42.664;23.242;2022-09-13T03:53:33;93831.88;;;14.16;73.12
61128;BME280;47013;42.664;23.242;2022-09-13T03:55:59;93842.00;;;14.15;72.38
61128;BME280;47013;42.664;23.242;2022-09-13T03:58:25;93835.66;;;14.06;72.26
61128;BME280;47013;42.664;23.242;2022-09-13T04:00:51;93839.09;;;13.94;72.45
61128;BME280;47013;42.664;23.242;2022-09-13T04:03:18;93833.22;;;13.95;72.66
61128;BME280;47013;42.664;23.242;2022-09-13T04:05:45;93838.66;;;13.95;73.11
61128;BME280;47013;42.664;23.242;2022-09-13T04:08:10;93842.59;;;13.94;73.15
61128;BME280;47013;42.664;23.242;2022-09-13T04:10:36;93840.91;;;13.84;73.32
61128;BME280;47013;42.664;23.242;2022-09-13T04:13:02;93837.16;;;13.78;73.50
61128;BME280;47013;42.664;23.242;2022-09-13T04:15:28;93835.13;;;13.82;73.67
61128;BME280;47013;42.664;23.242;2022-09-13T04:17:57;93835.13;;;13.82;73.50
61128;BME280;47013;42.664;23.242;2022-09-13T04:20:22;93827.72;;;13.82;73.26
61128;BME280;47013;42.664;23.242;2022-09-13T04:22:52;93831.63;;;13.81;73.31
61128;BME280;47013;42.664;23.242;2022-09-13T04:25:18;93830.09;;;13.80;73.30
61128;BME280;47013;42.664;23.242;2022-09-13T04:27:44;93831.78;;;13.74;72.75
61128;BME280;47013;42.664;23.242;2022-09-13T04:30:10;93844.13;;;13.79;72.79
61128;BME280;47013;42.664;23.242;2022-09-13T04:32:36;93847.28;;;13.77;72.41
61128;BME280;47013;42.664;23.242;2022-09-13T04:35:01;93847.22;;;13.81;72.42
61128;BME280;47013;42.664;23.242;2022-09-13T04:37:26;93850.34;;;13.79;72.58
61128;BME280;47013;42.664;23.242;2022-09-13T04:39:52;93852.22;;;13.82;72.31
61128;BME280;47013;42.664;23.242;2022-09-13T04:42:17;93849.84;;;13.84;72.01
61128;BME280;47013;42.664;23.242;2022-09-13T04:44:43;93854.34;;;13.91;72.00
61128;BME280;47013;42.664;23.242;2022-09-13T04:47:09;93858.50;;;13.96;72.54
61128;BME280;47013;42.664;23.242;2022-09-13T04:49:34;93864.66;;;13.83;72.25
61128;BME280;47013;42.664;23.242;2022-09-13T04:52:00;93869.09;;;13.94;72.46
61128;BME280;47013;42.664;23.242;2022-09-13T04:54:26;93861.91;;;14.29;85.99
61128;BME280;47013;42.664;23.242;2022-09-13T04:56:51;93864.00;;;14.54;71.67
61128;BME280;47013;42.664;23.242;2022-09-13T04:59:16;93863.66;;;14.52;70.07
61128;BME280;47013;42.664;23.242;2022-09-13T05:01:42;93868.03;;;14.49;70.29
61128;BME280;47013;42.664;23.242;2022-09-13T05:04:08;93860.00;;;14.42;71.43
61128;BME280;47013;42.664;23.242;2022-09-13T05:06:34;93871.63;;;14.46;71.46
61128;BME280;47013;42.664;23.242;2022-09-13T05:09:00;93868.38;;;14.51;70.84
61128;BME280;47013;42.664;23.242;2022-09-13T05:11:26;93876.59;;;14.64;71.47
61128;BME280;47013;42.664;23.242;2022-09-13T05:13:57;93871.31;;;14.57;70.17
61128;BME280;47013;42.664;23.242;2022-09-13T05:16:26;93870.66;;;14.53;70.60
61128;BME280;47013;42.664;23.242;2022-09-13T05:18:52;93864.75;;;14.54;70.35
61128;BME280;47013;42.664;23.242;2022-09-13T05:21:18;93870.38;;;14.63;70.65
61128;BME280;47013;42.664;23.242;2022-09-13T05:23:44;93872.66;;;14.65;70.24
61128;BME280;47013;42.664;23.242;2022-09-13T05:26:09;93871.59;;;14.75;69.39
61128;BME280;47013;42.664;23.242;2022-09-13T05:28:35;93877.59;;;14.83;69.93
61128;BME280;47013;42.664;23.242;2022-09-13T05:33:42;93885.69;;;14.73;69.95
61128;BME280;47013;42.664;23.242;2022-09-13T05:36:07;93879.00;;;14.62;70.98
61128;BME280;47013;42.664;23.242;2022-09-13T05:38:33;93870.69;;;14.65;70.00
61128;BME280;47013;42.664;23.242;2022-09-13T05:41:03;93878.19;;;14.49;70.75
61128;BME280;47013;42.664;23.242;2022-09-13T05:43:31;93882.34;;;14.53;70.74
61128;BME280;47013;42.664;23.242;2022-09-13T05:48:30;93870.03;;;14.61;70.23
61128;BME280;47013;42.664;23.242;2022-09-13T05:51:06;93883.72;;;14.74;69.92
61128;BME280;47013;42.664;23.242;2022-09-13T05:53:33;93867.44;;;14.83;69.71
61128;BME280;47013;42.664;23.242;2022-09-13T05:55:58;93872.91;;;14.83;69.47
61128;BME280;47013;42.664;23.242;2022-09-13T05:58:24;93883.72;;;14.74;68.60
61128;BME280;47013;42.664;23.242;2022-09-13T06:00:54;93881.53;;;14.82;68.83
61128;BME280;47013;42.664;23.242;2022-09-13T06:03:21;93870.78;;;15.03;68.71
61128;BME280;47013;42.664;23.242;2022-09-13T06:05:46;93865.72;;;14.89;67.15
61128;BME280;47013;42.664;23.242;2022-09-13T06:08:12;93876.03;;;15.11;67.87
61128;BME280;47013;42.664;23.242;2022-09-13T06:10:37;93867.50;;;15.34;66.57
61128;BME280;47013;42.664;23.242;2022-09-13T06:13:02;93882.03;;;15.56;66.21
61128;BME280;47013;42.664;23.242;2022-09-13T06:15:28;93877.03;;;15.80;66.14
61128;BME280;47013;42.664;23.242;2022-09-13T06:17:53;93884.75;;;15.95;63.18
61128;BME280;47013;42.664;23.242;2022-09-13T06:20:19;93887.03;;;16.09;62.94
61128;BME280;47013;42.664;23.242;2022-09-13T06:22:46;93884.44;;;16.27;63.73
61128;BME280;47013;42.664;23.242;2022-09-13T06:25:12;93885.59;;;16.39;62.16
61128;BME280;47013;42.664;23.242;2022-09-13T06:27:37;93881.44;;;16.47;61.03
61128;BME280;47013;42.664;23.242;2022-09-13T06:30:03;93887.47;;;16.64;62.67
61128;BME280;47013;42.664;23.242;2022-09-13T06:32:28;93889.63;;;16.82;62.45
61128;BME280;47013;42.664;23.242;2022-09-13T06:34:53;93893.50;;;16.93;60.22
61128;BME280;47013;42.664;23.242;2022-09-13T06:37:19;93891.72;;;16.99;59.82
61128;BME280;47013;42.664;23.242;2022-09-13T06:39:46;93901.91;;;16.99;59.61
61128;BME280;47013;42.664;23.242;2022-09-13T06:42:11;93900.16;;;16.92;58.55
61128;BME280;47013;42.664;23.242;2022-09-13T06:44:36;93898.97;;;16.93;59.00
61128;BME280;47013;42.664;23.242;2022-09-13T06:47:02;93900.44;;;17.07;58.74
61128;BME280;47013;42.664;23.242;2022-09-13T06:49:27;93906.16;;;17.22;59.38
61128;BME280;47013;42.664;23.242;2022-09-13T06:51:55;93907.22;;;17.24;58.66
61128;BME280;47013;42.664;23.242;2022-09-13T06:54:21;93908.13;;;17.21;58.04
61128;BME280;47013;42.664;23.242;2022-09-13T06:56:46;93916.03;;;17.19;58.19
61128;BME280;47013;42.664;23.242;2022-09-13T06:59:11;93916.09;;;16.85;58.80
61128;BME280;47013;42.664;23.242;2022-09-13T07:01:39;93912.41;;;17.00;59.11
61128;BME280;47013;42.664;23.242;2022-09-13T07:04:07;93914.91;;;17.07;58.17
61128;BME280;47013;42.664;23.242;2022-09-13T07:06:38;93921.94;;;17.18;57.86
61128;BME280;47013;42.664;23.242;2022-09-13T07:09:06;93918.34;;;17.30;57.37
61128;BME280;47013;42.664;23.242;2022-09-13T07:11:34;93925.00;;;17.20;57.33
61128;BME280;47013;42.664;23.242;2022-09-13T07:14:00;93934.69;;;17.12;58.02
61128;BME280;47013;42.664;23.242;2022-09-13T07:16:28;93934.13;;;16.95;58.46
61128;BME280;47013;42.664;23.242;2022-09-13T07:18:56;93935.66;;;16.96;58.75
61128;BME280;47013;42.664;23.242;2022-09-13T07:21:22;93938.84;;;16.94;58.96
61128;BME280;47013;42.664;23.242;2022-09-13T07:23:48;93930.50;;;16.76;59.02
61128;BME280;47013;42.664;23.242;2022-09-13T07:26:13;93933.16;;;16.89;58.04
61128;BME280;47013;42.664;23.242;2022-09-13T07:28:44;93934.56;;;17.15;58.04
61128;BME280;47013;42.664;23.242;2022-09-13T07:31:24;93930.06;;;17.30;56.28
61128;BME280;47013;42.664;23.242;2022-09-13T07:33:54;93945.41;;;17.50;54.94
61128;BME280;47013;42.664;23.242;2022-09-13T07:36:20;93931.88;;;17.55;55.34
61128;BME280;47013;42.664;23.242;2022-09-13T07:38:46;93935.06;;;17.54;54.67
61128;BME280;47013;42.664;23.242;2022-09-13T07:41:14;93938.66;;;17.42;52.76
61128;BME280;47013;42.664;23.242;2022-09-13T07:43:40;93930.34;;;17.45;54.20
61128;BME280;47013;42.664;23.242;2022-09-13T07:46:10;93935.66;;;17.49;53.70
61128;BME280;47013;42.664;23.242;2022-09-13T07:48:38;93938.56;;;17.45;53.34
61128;BME280;47013;42.664;23.242;2022-09-13T07:51:18;93945.88;;;17.48;53.54
61128;BME280;47013;42.664;23.242;2022-09-13T07:53:46;93941.47;;;17.51;52.31
61128;BME280;47013;42.664;23.242;2022-09-13T07:56:17;93944.72;;;17.58;53.04
61128;BME280;47013;42.664;23.242;2022-09-13T07:58:45;93943.59;;;17.78;52.31
61128;BME280;47013;42.664;23.242;2022-09-13T08:01:14;93944.75;;;18.08;53.28
61128;BME280;47013;42.664;23.242;2022-09-13T08:03:41;93952.63;;;18.37;52.85
61128;BME280;47013;42.664;23.242;2022-09-13T08:06:07;93938.31;;;18.69;51.18
61128;BME280;47013;42.664;23.242;2022-09-13T08:08:34;93932.53;;;18.85;48.36
61128;BME280;47013;42.664;23.242;2022-09-13T08:11:01;93942.16;;;18.81;46.71
61128;BME280;47013;42.664;23.242;2022-09-13T08:13:27;93944.41;;;18.73;47.96
61128;BME280;47013;42.664;23.242;2022-09-13T08:16:00;93939.41;;;18.81;49.63
61128;BME280;47013;42.664;23.242;2022-09-13T08:18:26;93942.78;;;18.76;49.03
61128;BME280;47013;42.664;23.242;2022-09-13T08:20:55;93939.53;;;18.86;48.31
61128;BME280;47013;42.664;23.242;2022-09-13T08:23:22;93939.84;;;19.16;48.81
61128;BME280;47013;42.664;23.242;2022-09-13T08:25:47;93936.41;;;19.49;47.88
61128;BME280;47013;42.664;23.242;2022-09-13T08:28:15;93931.19;;;19.51;45.91
61128;BME280;47013;42.664;23.242;2022-09-13T08:30:40;93936.28;;;19.34;46.25
61128;BME280;47013;42.664;23.242;2022-09-13T08:33:08;93933.94;;;19.51;47.27
61128;BME280;47013;42.664;23.242;2022-09-13T08:35:35;93928.53;;;19.84;42.65
61128;BME280;47013;42.664;23.242;2022-09-13T08:38:00;93932.44;;;19.92;42.96
61128;BME280;47013;42.664;23.242;2022-09-13T08:40:48;93922.59;;;20.09;43.28
61128;BME280;47013;42.664;23.242;2022-09-13T08:46:24;93925.97;;;19.71;43.88
61128;BME280;47013;42.664;23.242;2022-09-13T08:48:53;93920.50;;;19.62;44.02
61128;BME280;47013;42.664;23.242;2022-09-13T08:53:54;93917.97;;;19.82;43.08
61128;BME280;47013;42.664;23.242;2022-09-13T08:56:25;93914.28;;;20.18;42.95
61128;BME280;47013;42.664;23.242;2022-09-13T09:05:03;93906.00;;;21.05;36.56
61128;BME280;47013;42.664;23.242;2022-09-13T09:07:36;93909.56;;;21.35;34.80
61128;BME280;47013;42.664;23.242;2022-09-13T09:10:17;93907.38;;;21.24;34.49
61128;BME280;47013;42.664;23.242;2022-09-13T09:12:48;93912.00;;;21.03;37.20
61128;BME280;47013;42.664;23.242;2022-09-13T09:15:50;93914.84;;;20.70;38.95
61128;BME280;47013;42.664;23.242;2022-09-13T09:20:43;93915.13;;;20.57;39.17
61128;BME280;47013;42.664;23.242;2022-09-13T09:23:19;93926.31;;;20.92;38.73
61128;BME280;47013;42.664;23.242;2022-09-13T09:25:46;93917.03;;;21.19;37.37
61128;BME280;47013;42.664;23.242;2022-09-13T09:28:13;93910.50;;;21.46;37.74
61128;BME280;47013;42.664;23.242;2022-09-13T09:40:58;93902.75;;;22.10;34.75
61128;BME280;47013;42.664;23.242;2022-09-13T09:43:31;93895.78;;;22.14;33.28
61128;BME280;47013;42.664;23.242;2022-09-13T09:45:59;93889.41;;;22.08;34.81
61128;BME280;47013;42.664;23.242;2022-09-13T09:48:33;93892.84;;;21.53;35.28
61128;BME280;47013;42.664;23.242;2022-09-13T09:51:02;93890.38;;;21.40;36.27
61128;BME280;47013;42.664;23.242;2022-09-13T09:53:49;93891.59;;;21.39;36.43
61128;BME280;47013;42.664;23.242;2022-09-13T09:56:24;93882.94;;;21.46;36.61
61128;BME280;47013;42.664;23.242;2022-09-13T09:58:51;93886.84;;;21.55;37.28
61128;BME280;47013;42.664;23.242;2022-09-13T10:03:49;93873.22;;;22.16;36.00
61128;BME280;47013;42.664;23.242;2022-09-13T10:06:21;93885.41;;;22.09;34.52
61128;BME280;47013;42.664;23.242;2022-09-13T10:08:57;93870.84;;;22.08;34.70
61128;BME280;47013;42.664;23.242;2022-09-13T10:11:58;93867.72;;;21.86;35.26
61128;BME280;47013;42.664;23.242;2022-09-13T10:17:21;93861.13;;;21.63;33.90
61128;BME280;47013;42.664;23.242;2022-09-13T10:19:59;93854.28;;;22.08;34.91
61128;BME280;47013;42.664;23.242;2022-09-13T10:22:30;93859.63;;;21.97;34.12
61128;BME280;47013;42.664;23.242;2022-09-13T10:25:21;93856.41;;;21.84;34.62
61128;BME280;47013;42.664;23.242;2022-09-13T10:27:55;93862.84;;;21.75;35.25
61128;BME280;47013;42.664;23.242;2022-09-13T10:32:56;93862.97;;;21.52;34.89
61128;BME280;47013;42.664;23.242;2022-09-13T10:35:22;93860.41;;;21.33;35.24
61128;BME280;47013;42.664;23.242;2022-09-13T10:37:48;93853.38;;;21.32;36.68
61128;BME280;47013;42.664;23.242;2022-09-13T10:40:28;93850.13;;;21.48;37.02
61128;BME280;47013;42.664;23.242;2022-09-13T10:43:00;93848.38;;;22.01;36.21
61128;BME280;47013;42.664;23.242;2022-09-13T10:45:29;93844.34;;;22.37;35.06
61128;BME280;47013;42.664;23.242;2022-09-13T10:48:05;93846.69;;;22.85;34.80
61128;BME280;47013;42.664;23.242;2022-09-13T10:50:35;93838.72;;;23.18;33.21
61128;BME280;47013;42.664;23.242;2022-09-13T10:53:01;93834.84;;;23.36;33.14
61128;BME280;47013;42.664;23.242;2022-09-13T10:58:11;93830.13;;;23.16;32.41
61128;BME280;47013;42.664;23.242;2022-09-13T11:08:59;93832.13;;;23.16;32.94
61128;BME280;47013;42.664;23.242;2022-09-13T11:19:44;93836.34;;;23.63;30.30
61128;BME280;47013;42.664;23.242;2022-09-13T11:28:28;93821.06;;;23.73;30.51
61128;BME280;47013;42.664;23.242;2022-09-13T11:36:43;93806.16;;;24.62;30.26
61128;BME280;47013;42.664;23.242;2022-09-13T11:39:21;93800.50;;;24.34;30.32
61128;BME280;47013;42.664;23.242;2022-09-13T11:47:54;93808.28;;;25.06;28.93
61128;BME280;47013;42.664;23.242;2022-09-13T11:50:27;93811.06;;;25.23;28.02
61128;BME280;47013;42.664;23.242;2022-09-13T11:55:27;93816.13;;;25.30;26.91
61128;BME280;47013;42.664;23.242;2022-09-13T11:57:58;93799.22;;;25.73;28.37
61128;BME280;47013;42.664;23.242;2022-09-13T12:00:33;93802.00;;;25.56;26.84
61128;BME280;47013;42.664;23.242;2022-09-13T12:05:45;93806.72;;;26.11;26.50
61128;BME280;47013;42.664;23.242;2022-09-13T12:08:23;93802.19;;;26.03;26.81
61128;BME280;47013;42.664;23.242;2022-09-13T12:13:29;93805.50;;;25.84;26.93
61128;BME280;47013;42.664;23.242;2022-09-13T12:15:59;93811.03;;;25.90;26.78
61128;BME280;47013;42.664;23.242;2022-09-13T12:18:30;93815.31;;;26.02;25.91
61128;BME280;47013;42.664;23.242;2022-09-13T12:21:11;93806.69;;;26.23;26.31
61128;BME280;47013;42.664;23.242;2022-09-13T12:23:45;93807.78;;;25.92;26.78
61128;BME280;47013;42.664;23.242;2022-09-13T12:26:25;93810.03;;;25.65;27.54
61128;BME280;47013;42.664;23.242;2022-09-13T12:28:58;93803.75;;;25.31;28.42
61128;BME280;47013;42.664;23.242;2022-09-13T12:31:28;93802.00;;;25.28;27.98
61128;BME280;47013;42.664;23.242;2022-09-13T12:33:54;93798.41;;;24.94;28.79
61128;BME280;47013;42.664;23.242;2022-09-13T12:39:33;93803.97;;;24.29;30.18
61128;BME280;47013;42.664;23.242;2022-09-13T12:53:18;93807.22;;;23.73;31.93
61128;BME280;47013;42.664;23.242;2022-09-13T13:02:01;93795.56;;;24.06;30.63
61128;BME280;47013;42.664;23.242;2022-09-13T13:04:32;93798.75;;;24.36;30.76
61128;BME280;47013;42.664;23.242;2022-09-13T13:07:04;93801.09;;;24.60;29.94
61128;BME280;47013;42.664;23.242;2022-09-13T13:09:41;93799.13;;;24.78;30.98
61128;BME280;47013;42.664;23.242;2022-09-13T13:12:09;93798.84;;;24.64;29.53
61128;BME280;47013;42.664;23.242;2022-09-13T13:21:05;93805.13;;;24.59;29.73
61128;BME280;47013;42.664;23.242;2022-09-13T13:22:50;93816.69;;;24.52;29.78
61128;BME280;47013;42.664;23.242;2022-09-13T13:25:36;93813.53;;;24.28;30.01
61128;BME280;47013;42.664;23.242;2022-09-13T13:32:03;93817.25;;;23.39;31.65
61128;BME280;47013;42.664;23.242;2022-09-13T13:39:32;93813.41;;;22.53;34.20
61128;BME280;47013;42.664;23.242;2022-09-13T13:42:26;93821.06;;;22.23;34.62
61128;BME280;47013;42.664;23.242;2022-09-13T13:52:49;93816.31;;;22.44;35.66
61128;BME280;47013;42.664;23.242;2022-09-13T13:55:30;93828.47;;;22.32;34.52
61128;BME280;47013;42.664;23.242;2022-09-13T13:58:24;93831.84;;;22.42;34.85
61128;BME280;47013;42.664;23.242;2022-09-13T14:00:52;93825.34;;;22.45;34.92
61128;BME280;47013;42.664;23.242;2022-09-13T14:14:25;93825.94;;;22.28;34.46
61128;BME280;47013;42.664;23.242;2022-09-13T14:19:50;93828.19;;;22.30;33.60
61128;BME280;47013;42.664;23.242;2022-09-13T14:22:27;93822.94;;;22.12;34.00
61128;BME280;47013;42.664;23.242;2022-09-13T14:24:55;93821.41;;;22.11;33.80
61128;BME280;47013;42.664;23.242;2022-09-13T14:27:29;93823.94;;;21.94;34.35
61128;BME280;47013;42.664;23.242;2022-09-13T14:30:00;93820.16;;;21.91;34.99
61128;BME280;47013;42.664;23.242;2022-09-13T14:32:29;93832.34;;;21.85;35.30
61128;BME280;47013;42.664;23.242;2022-09-13T14:35:05;93827.13;;;21.72;34.47
61128;BME280;47013;42.664;23.242;2022-09-13T14:37:35;93828.59;;;21.67;34.71
61128;BME280;47013;42.664;23.242;2022-09-13T14:42:41;93823.31;;;21.49;35.50
61128;BME280;47013;42.664;23.242;2022-09-13T14:45:15;93830.66;;;21.37;35.96
61128;BME280;47013;42.664;23.242;2022-09-13T14:48:18;93833.28;;;21.32;35.60
61128;BME280;47013;42.664;23.242;2022-09-13T14:50:39;93828.06;;;21.19;34.87
61128;BME280;47013;42.664;23.242;2022-09-13T14:53:12;93826.16;;;21.10;34.60
61128;BME280;47013;42.664;23.242;2022-09-13T14:55:42;93829.66;;;20.96;35.85
61128;BME280;47013;42.664;23.242;2022-09-13T14:58:26;93829.50;;;21.00;36.37
61128;BME280;47013;42.664;23.242;2022-09-13T15:03:22;93826.75;;;21.00;35.96
61128;BME280;47013;42.664;23.242;2022-09-13T15:05:56;93834.34;;;20.90;36.08
61128;BME280;47013;42.664;23.242;2022-09-13T15:11:06;93842.28;;;20.58;36.16
61128;BME280;47013;42.664;23.242;2022-09-13T15:13:36;93831.69;;;20.42;36.37
61128;BME280;47013;42.664;23.242;2022-09-13T15:16:23;93824.94;;;20.43;37.93
61128;BME280;47013;42.664;23.242;2022-09-13T15:19:42;93836.59;;;20.38;36.18
61128;BME280;47013;42.664;23.242;2022-09-13T15:22:02;93826.06;;;20.37;37.13
61128;BME280;47013;42.664;23.242;2022-09-13T15:24:31;93833.41;;;20.30;36.82
61128;BME280;47013;42.664;23.242;2022-09-13T15:27:14;93832.38;;;20.28;37.57
61128;BME280;47013;42.664;23.242;2022-09-13T15:29:49;93824.97;;;20.19;36.91
61128;BME280;47013;42.664;23.242;2022-09-13T15:32:27;93832.22;;;20.08;37.52
61128;BME280;47013;42.664;23.242;2022-09-13T15:34:56;93820.28;;;20.11;38.48
61128;BME280;47013;42.664;23.242;2022-09-13T15:37:29;93826.44;;;20.06;38.75
61128;BME280;47013;42.664;23.242;2022-09-13T15:40:15;93822.16;;;19.81;37.52
61128;BME280;47013;42.664;23.242;2022-09-13T15:42:44;93827.88;;;19.68;37.60
61128;BME280;47013;42.664;23.242;2022-09-13T15:45:10;93838.88;;;19.68;38.17
61128;BME280;47013;42.664;23.242;2022-09-13T15:47:36;93834.19;;;19.50;38.15
61128;BME280;47013;42.664;23.242;2022-09-13T15:50:02;93835.13;;;19.47;38.59
61128;BME280;47013;42.664;23.242;2022-09-13T15:52:28;93824.78;;;19.33;39.29
61128;BME280;47013;42.664;23.242;2022-09-13T15:54:53;93847.06;;;19.44;39.42
61128;BME280;47013;42.664;23.242;2022-09-13T15:57:22;93850.75;;;19.32;40.09
61128;BME280;47013;42.664;23.242;2022-09-13T15:59:48;93856.56;;;19.25;40.00
61128;BME280;47013;42.664;23.242;2022-09-13T16:02:27;93863.00;;;19.22;40.58
61128;BME280;47013;42.664;23.242;2022-09-13T16:04:55;93867.91;;;19.18;40.69
61128;BME280;47013;42.664;23.242;2022-09-13T16:07:21;93863.03;;;19.12;41.80
61128;BME280;47013;42.664;23.242;2022-09-13T16:09:47;93861.97;;;19.10;41.93
61128;BME280;47013;42.664;23.242;2022-09-13T16:12:14;93867.63;;;18.97;41.05
61128;BME280;47013;42.664;23.242;2022-09-13T16:14:40;93859.84;;;19.05;53.65
61128;BME280;47013;42.664;23.242;2022-09-13T16:17:22;93867.44;;;19.70;57.50
61128;BME280;47013;42.664;23.242;2022-09-13T16:19:48;93860.44;;;20.17;51.55
61128;BME280;47013;42.664;23.242;2022-09-13T16:22:15;93864.78;;;20.33;39.99
61128;BME280;47013;42.664;23.242;2022-09-13T16:24:40;93860.59;;;19.90;40.57
61128;BME280;47013;42.664;23.242;2022-09-13T16:27:06;93866.59;;;19.55;40.95
61128;BME280;47013;42.664;23.242;2022-09-13T16:29:32;93872.53;;;19.02;42.00
61128;BME280;47013;42.664;23.242;2022-09-13T16:31:57;93877.75;;;18.73;42.89